sensor_id;sensor_type;location;lat;lon;timestamp;P1;durP1;ratioP1;P2;durP2;ratioP2
4011;SDS011;2020;48.682;9.024;2023-12-20T00:02:21;1.17;;;1.17;;
4011;SDS011;2020;48.682;9.024;2023-12-20T00:04:46;0.80;;;0.80;;
4011;SDS011;2020;48.682;9.024;2023-12-20T00:07:12;0.60;;;0.60;;
4011;SDS011;2020;48.682;9.024;2023-12-20T00:09:37;0.77;;;0.77;;
4011;SDS011;2020;48.682;9.024;2023-12-20T00:12:02;1.27;;;1.00;;
4011;SDS011;2020;48.682;9.024;2023-12-20T00:14:28;0.50;;;0.50;;
4011;SDS011;2020;48.682;9.024;2023-12-20T00:16:53;0.90;;;0.90;;
4011;SDS011;2020;48.682;9.024;2023-12-20T00:19:18;0.90;;;0.90;;
4011;SDS011;2020;48.682;9.024;2023-12-20T00:21:43;0.67;;;0.67;;
4011;SDS011;2020;48.682;9.024;2023-12-20T00:24:09;0.67;;;0.50;;
4011;SDS011;2020;48.682;9.024;2023-12-20T00:26:34;0.90;;;0.90;;
4011;SDS011;2020;48.682;9.024;2023-12-20T00:28:59;0.80;;;0.80;;
4011;SDS011;2020;48.682;9.024;2023-12-20T00:31:25;0.93;;;0.60;;
4011;SDS011;2020;48.682;9.024;2023-12-20T00:33:50;0.57;;;0.57;;
4011;SDS011;2020;48.682;9.024;2023-12-20T00:36:15;0.60;;;0.60;;
4011;SDS011;2020;48.682;9.024;2023-12-20T00:38:40;0.70;;;0.70;;
4011;SDS011;2020;48.682;9.024;2023-12-20T00:41:06;0.70;;;0.70;;
4011;SDS011;2020;48.682;9.024;2023-12-20T00:43:31;0.77;;;0.63;;
4011;SDS011;2020;48.682;9.024;2023-12-20T00:45:57;0.83;;;0.83;;
4011;SDS011;2020;48.682;9.024;2023-12-20T00:48:22;0.60;;;0.60;;
4011;SDS011;2020;48.682;9.024;2023-12-20T00:50:47;0.60;;;0.60;;
4011;SDS011;2020;48.682;9.024;2023-12-20T00:53:12;0.70;;;0.70;;
4011;SDS011;2020;48.682;9.024;2023-12-20T00:55:38;3.13;;;0.80;;
4011;SDS011;2020;48.682;9.024;2023-12-20T00:58:03;0.60;;;0.60;;
4011;SDS011;2020;48.682;9.024;2023-12-20T01:00:28;0.50;;;0.50;;
4011;SDS011;2020;48.682;9.024;2023-12-20T01:02:54;0.50;;;0.50;;
4011;SDS011;2020;48.682;9.024;2023-12-20T01:05:19;0.50;;;0.50;;
4011;SDS011;2020;48.682;9.024;2023-12-20T01:07:47;0.50;;;0.50;;
4011;SDS011;2020;48.682;9.024;2023-12-20T01:10:13;0.70;;;0.70;;
4011;SDS011;2020;48.682;9.024;2023-12-20T01:12:38;0.70;;;0.70;;
4011;SDS011;2020;48.682;9.024;2023-12-20T01:15:04;0.77;;;0.77;;
4011;SDS011;2020;48.682;9.024;2023-12-20T01:17:29;0.50;;;0.50;;
4011;SDS011;2020;48.682;9.024;2023-12-20T01:19:55;0.60;;;0.60;;
4011;SDS011;2020;48.682;9.024;2023-12-20T01:22:20;0.60;;;0.60;;
4011;SDS011;2020;48.682;9.024;2023-12-20T01:24:45;0.60;;;0.60;;
4011;SDS011;2020;48.682;9.024;2023-12-20T01:27:10;0.80;;;0.80;;
4011;SDS011;2020;48.682;9.024;2023-12-20T01:29:36;0.77;;;0.77;;
4011;SDS011;2020;48.682;9.024;2023-12-20T01:32:01;0.60;;;0.60;;
4011;SDS011;2020;48.682;9.024;2023-12-20T01:34:26;0.70;;;0.70;;
4011;SDS011;2020;48.682;9.024;2023-12-20T01:36:51;0.50;;;0.50;;
4011;SDS011;2020;48.682;9.024;2023-12-20T01:39:17;0.60;;;0.60;;
4011;SDS011;2020;48.682;9.024;2023-12-20T01:41:42;0.60;;;0.60;;
4011;SDS011;2020;48.682;9.024;2023-12-20T01:44:08;0.50;;;0.50;;
4011;SDS011;2020;48.682;9.024;2023-12-20T01:46:33;1.17;;;0.80;;
4011;SDS011;2020;48.682;9.024;2023-12-20T01:48:59;0.40;;;0.40;;
4011;SDS011;2020;48.682;9.024;2023-12-20T01:51:24;0.40;;;0.40;;
4011;SDS011;2020;48.682;9.024;2023-12-20T01:53:52;0.60;;;0.50;;
4011;SDS011;2020;48.682;9.024;2023-12-20T01:56:18;0.40;;;0.40;;
4011;SDS011;2020;48.682;9.024;2023-12-20T01:58:44;2.63;;;0.60;;
4011;SDS011;2020;48.682;9.024;2023-12-20T02:01:11;0.50;;;0.50;;
4011;SDS011;2020;48.682;9.024;2023-12-20T02:03:37;0.43;;;0.43;;
4011;SDS011;2020;48.682;9.024;2023-12-20T02:06:03;0.50;;;0.50;;
4011;SDS011;2020;48.682;9.024;2023-12-20T02:08:30;0.47;;;0.47;;
4011;SDS011;2020;48.682;9.024;2023-12-20T02:10:55;0.40;;;0.40;;
4011;SDS011;2020;48.682;9.024;2023-12-20T02:13:21;0.50;;;0.50;;
4011;SDS011;2020;48.682;9.024;2023-12-20T02:15:46;0.47;;;0.47;;
4011;SDS011;2020;48.682;9.024;2023-12-20T02:18:11;1.53;;;0.50;;
4011;SDS011;2020;48.682;9.024;2023-12-20T02:20:40;0.40;;;0.40;;
4011;SDS011;2020;48.682;9.024;2023-12-20T02:23:05;0.40;;;0.40;;
4011;SDS011;2020;48.682;9.024;2023-12-20T02:25:30;0.50;;;0.50;;
4011;SDS011;2020;48.682;9.024;2023-12-20T02:27:56;0.40;;;0.40;;
4011;SDS011;2020;48.682;9.024;2023-12-20T02:30:21;0.40;;;0.40;;
4011;SDS011;2020;48.682;9.024;2023-12-20T02:32:47;0.40;;;0.40;;
4011;SDS011;2020;48.682;9.024;2023-12-20T02:35:13;0.40;;;0.40;;
4011;SDS011;2020;48.682;9.024;2023-12-20T02:37:38;0.30;;;0.30;;
4011;SDS011;2020;48.682;9.024;2023-12-20T02:40:04;0.47;;;0.47;;
4011;SDS011;2020;48.682;9.024;2023-12-20T02:42:29;0.40;;;0.40;;
4011;SDS011;2020;48.682;9.024;2023-12-20T02:44:55;0.40;;;0.40;;
4011;SDS011;2020;48.682;9.024;2023-12-20T02:47:20;0.40;;;0.40;;
4011;SDS011;2020;48.682;9.024;2023-12-20T02:49:45;0.40;;;0.40;;
4011;SDS011;2020;48.682;9.024;2023-12-20T02:52:10;0.40;;;0.40;;
4011;SDS011;2020;48.682;9.024;2023-12-20T02:54:36;1.63;;;0.33;;
4011;SDS011;2020;48.682;9.024;2023-12-20T02:57:01;0.53;;;0.50;;
4011;SDS011;2020;48.682;9.024;2023-12-20T02:59:26;0.40;;;0.40;;
4011;SDS011;2020;48.682;9.024;2023-12-20T03:01:52;0.40;;;0.40;;
4011;SDS011;2020;48.682;9.024;2023-12-20T03:04:17;0.37;;;0.37;;
4011;SDS011;2020;48.682;9.024;2023-12-20T03:06:42;0.30;;;0.30;;
4011;SDS011;2020;48.682;9.024;2023-12-20T03:09:07;0.30;;;0.30;;
4011;SDS011;2020;48.682;9.024;2023-12-20T03:11:33;0.40;;;0.40;;
4011;SDS011;2020;48.682;9.024;2023-12-20T03:13:58;1.17;;;0.40;;
4011;SDS011;2020;48.682;9.024;2023-12-20T03:16:23;0.40;;;0.40;;
4011;SDS011;2020;48.682;9.024;2023-12-20T03:18:49;1.50;;;0.30;;
4011;SDS011;2020;48.682;9.024;2023-12-20T03:21:14;0.40;;;0.40;;
4011;SDS011;2020;48.682;9.024;2023-12-20T03:23:40;0.30;;;0.30;;
4011;SDS011;2020;48.682;9.024;2023-12-20T03:26:08;0.40;;;0.40;;
4011;SDS011;2020;48.682;9.024;2023-12-20T03:28:34;0.40;;;0.40;;
4011;SDS011;2020;48.682;9.024;2023-12-20T03:31:00;0.30;;;0.30;;
4011;SDS011;2020;48.682;9.024;2023-12-20T03:33:27;0.40;;;0.40;;
4011;SDS011;2020;48.682;9.024;2023-12-20T03:35:52;0.40;;;0.40;;
4011;SDS011;2020;48.682;9.024;2023-12-20T03:38:17;0.37;;;0.37;;
4011;SDS011;2020;48.682;9.024;2023-12-20T03:40:43;0.50;;;0.50;;
4011;SDS011;2020;48.682;9.024;2023-12-20T03:43:08;0.40;;;0.40;;
4011;SDS011;2020;48.682;9.024;2023-12-20T03:45:33;0.30;;;0.30;;
4011;SDS011;2020;48.682;9.024;2023-12-20T03:47:59;0.40;;;0.40;;
4011;SDS011;2020;48.682;9.024;2023-12-20T03:50:24;0.30;;;0.30;;
4011;SDS011;2020;48.682;9.024;2023-12-20T03:52:50;0.40;;;0.40;;
4011;SDS011;2020;48.682;9.024;2023-12-20T03:55:15;0.30;;;0.30;;
4011;SDS011;2020;48.682;9.024;2023-12-20T03:57:40;0.30;;;0.30;;
4011;SDS011;2020;48.682;9.024;2023-12-20T04:00:09;0.50;;;0.50;;
4011;SDS011;2020;48.682;9.024;2023-12-20T04:02:36;0.40;;;0.40;;
4011;SDS011;2020;48.682;9.024;2023-12-20T04:05:04;0.30;;;0.30;;
4011;SDS011;2020;48.682;9.024;2023-12-20T04:07:30;0.40;;;0.40;;
4011;SDS011;2020;48.682;9.024;2023-12-20T04:09:55;0.30;;;0.30;;
4011;SDS011;2020;48.682;9.024;2023-12-20T04:12:21;0.30;;;0.30;;
4011;SDS011;2020;48.682;9.024;2023-12-20T04:14:46;0.30;;;0.30;;
4011;SDS011;2020;48.682;9.024;2023-12-20T04:17:11;0.40;;;0.40;;
4011;SDS011;2020;48.682;9.024;2023-12-20T04:19:36;0.30;;;0.30;;
4011;SDS011;2020;48.682;9.024;2023-12-20T04:22:02;0.30;;;0.30;;
4011;SDS011;2020;48.682;9.024;2023-12-20T04:24:27;0.30;;;0.30;;
4011;SDS011;2020;48.682;9.024;2023-12-20T04:26:52;0.30;;;0.30;;
4011;SDS011;2020;48.682;9.024;2023-12-20T04:29:18;0.60;;;0.30;;
4011;SDS011;2020;48.682;9.024;2023-12-20T04:31:43;0.30;;;0.30;;
4011;SDS011;2020;48.682;9.024;2023-12-20T04:34:08;0.30;;;0.30;;
4011;SDS011;2020;48.682;9.024;2023-12-20T04:36:33;0.30;;;0.30;;
4011;SDS011;2020;48.682;9.024;2023-12-20T04:38:59;0.40;;;0.40;;
4011;SDS011;2020;48.682;9.024;2023-12-20T04:41:24;0.37;;;0.37;;
4011;SDS011;2020;48.682;9.024;2023-12-20T04:43:50;0.30;;;0.30;;
4011;SDS011;2020;48.682;9.024;2023-12-20T04:46:15;0.40;;;0.40;;
4011;SDS011;2020;48.682;9.024;2023-12-20T04:48:40;0.30;;;0.30;;
4011;SDS011;2020;48.682;9.024;2023-12-20T04:51:05;0.30;;;0.30;;
4011;SDS011;2020;48.682;9.024;2023-12-20T04:53:31;0.40;;;0.40;;
4011;SDS011;2020;48.682;9.024;2023-12-20T04:55:56;0.40;;;0.40;;
4011;SDS011;2020;48.682;9.024;2023-12-20T04:58:21;0.40;;;0.40;;
4011;SDS011;2020;48.682;9.024;2023-12-20T05:00:46;0.40;;;0.40;;
4011;SDS011;2020;48.682;9.024;2023-12-20T05:03:12;1.33;;;0.40;;
4011;SDS011;2020;48.682;9.024;2023-12-20T05:05:37;0.40;;;0.40;;
4011;SDS011;2020;48.682;9.024;2023-12-20T05:08:02;0.40;;;0.40;;
4011;SDS011;2020;48.682;9.024;2023-12-20T05:10:29;0.30;;;0.30;;
4011;SDS011;2020;48.682;9.024;2023-12-20T05:12:54;0.93;;;0.40;;
4011;SDS011;2020;48.682;9.024;2023-12-20T05:15:19;0.33;;;0.33;;
4011;SDS011;2020;48.682;9.024;2023-12-20T05:17:44;0.50;;;0.50;;
4011;SDS011;2020;48.682;9.024;2023-12-20T05:20:10;0.30;;;0.30;;
4011;SDS011;2020;48.682;9.024;2023-12-20T05:22:35;0.40;;;0.40;;
4011;SDS011;2020;48.682;9.024;2023-12-20T05:25:00;0.70;;;0.43;;
4011;SDS011;2020;48.682;9.024;2023-12-20T05:27:26;0.30;;;0.30;;
4011;SDS011;2020;48.682;9.024;2023-12-20T05:29:51;0.30;;;0.30;;
4011;SDS011;2020;48.682;9.024;2023-12-20T05:32:16;0.30;;;0.30;;
4011;SDS011;2020;48.682;9.024;2023-12-20T05:34:41;0.40;;;0.40;;
4011;SDS011;2020;48.682;9.024;2023-12-20T05:37:07;0.30;;;0.30;;
4011;SDS011;2020;48.682;9.024;2023-12-20T05:39:32;0.30;;;0.30;;
4011;SDS011;2020;48.682;9.024;2023-12-20T05:41:57;0.30;;;0.30;;
4011;SDS011;2020;48.682;9.024;2023-12-20T05:44:22;0.73;;;0.60;;
4011;SDS011;2020;48.682;9.024;2023-12-20T05:46:48;0.30;;;0.30;;
4011;SDS011;2020;48.682;9.024;2023-12-20T05:49:13;0.40;;;0.40;;
4011;SDS011;2020;48.682;9.024;2023-12-20T05:51:38;0.57;;;0.40;;
4011;SDS011;2020;48.682;9.024;2023-12-20T05:54:04;0.40;;;0.40;;
4011;SDS011;2020;48.682;9.024;2023-12-20T05:56:29;0.60;;;0.60;;
4011;SDS011;2020;48.682;9.024;2023-12-20T05:58:54;0.30;;;0.30;;
4011;SDS011;2020;48.682;9.024;2023-12-20T06:01:20;0.30;;;0.30;;
4011;SDS011;2020;48.682;9.024;2023-12-20T06:03:45;0.30;;;0.30;;
4011;SDS011;2020;48.682;9.024;2023-12-20T06:06:13;0.30;;;0.30;;
4011;SDS011;2020;48.682;9.024;2023-12-20T06:08:39;0.40;;;0.40;;
4011;SDS011;2020;48.682;9.024;2023-12-20T06:11:04;0.40;;;0.40;;
4011;SDS011;2020;48.682;9.024;2023-12-20T06:13:30;0.40;;;0.40;;
4011;SDS011;2020;48.682;9.024;2023-12-20T06:15:55;0.50;;;0.40;;
4011;SDS011;2020;48.682;9.024;2023-12-20T06:18:21;0.40;;;0.40;;
4011;SDS011;2020;48.682;9.024;2023-12-20T06:20:47;0.40;;;0.40;;
4011;SDS011;2020;48.682;9.024;2023-12-20T06:23:12;0.40;;;0.40;;
4011;SDS011;2020;48.682;9.024;2023-12-20T06:25:37;0.40;;;0.40;;
4011;SDS011;2020;48.682;9.024;2023-12-20T06:28:03;0.60;;;0.60;;
4011;SDS011;2020;48.682;9.024;2023-12-20T06:30:28;2.50;;;0.47;;
4011;SDS011;2020;48.682;9.024;2023-12-20T06:32:54;0.70;;;0.50;;
4011;SDS011;2020;48.682;9.024;2023-12-20T06:35:20;1.83;;;0.60;;
4011;SDS011;2020;48.682;9.024;2023-12-20T06:37:45;0.50;;;0.50;;
4011;SDS011;2020;48.682;9.024;2023-12-20T06:40:10;0.40;;;0.40;;
4011;SDS011;2020;48.682;9.024;2023-12-20T06:42:36;0.60;;;0.60;;
4011;SDS011;2020;48.682;9.024;2023-12-20T06:45:02;0.43;;;0.43;;
4011;SDS011;2020;48.682;9.024;2023-12-20T06:47:28;0.83;;;0.50;;
4011;SDS011;2020;48.682;9.024;2023-12-20T06:49:53;0.50;;;0.50;;
4011;SDS011;2020;48.682;9.024;2023-12-20T06:52:18;0.50;;;0.50;;
4011;SDS011;2020;48.682;9.024;2023-12-20T06:54:43;0.60;;;0.60;;
4011;SDS011;2020;48.682;9.024;2023-12-20T06:57:09;0.70;;;0.70;;
4011;SDS011;2020;48.682;9.024;2023-12-20T06:59:38;0.60;;;0.50;;
4011;SDS011;2020;48.682;9.024;2023-12-20T07:02:05;2.20;;;0.50;;
4011;SDS011;2020;48.682;9.024;2023-12-20T07:04:31;0.60;;;0.60;;
4011;SDS011;2020;48.682;9.024;2023-12-20T07:06:56;0.50;;;0.50;;
4011;SDS011;2020;48.682;9.024;2023-12-20T07:09:25;1.07;;;0.70;;
4011;SDS011;2020;48.682;9.024;2023-12-20T07:11:50;1.03;;;0.57;;
4011;SDS011;2020;48.682;9.024;2023-12-20T07:14:15;0.50;;;0.50;;
4011;SDS011;2020;48.682;9.024;2023-12-20T07:16:41;0.50;;;0.50;;
4011;SDS011;2020;48.682;9.024;2023-12-20T07:19:06;0.60;;;0.60;;
4011;SDS011;2020;48.682;9.024;2023-12-20T07:21:31;0.50;;;0.50;;
4011;SDS011;2020;48.682;9.024;2023-12-20T07:23:56;0.63;;;0.63;;
4011;SDS011;2020;48.682;9.024;2023-12-20T07:26:22;0.60;;;0.60;;
4011;SDS011;2020;48.682;9.024;2023-12-20T07:28:48;0.50;;;0.50;;
4011;SDS011;2020;48.682;9.024;2023-12-20T07:31:15;0.80;;;0.80;;
4011;SDS011;2020;48.682;9.024;2023-12-20T07:33:40;0.60;;;0.60;;
4011;SDS011;2020;48.682;9.024;2023-12-20T07:36:06;0.53;;;0.53;;
4011;SDS011;2020;48.682;9.024;2023-12-20T07:38:32;0.50;;;0.50;;
4011;SDS011;2020;48.682;9.024;2023-12-20T07:40:57;0.63;;;0.63;;
4011;SDS011;2020;48.682;9.024;2023-12-20T07:43:22;1.00;;;1.00;;
4011;SDS011;2020;48.682;9.024;2023-12-20T07:45:47;0.67;;;0.67;;
4011;SDS011;2020;48.682;9.024;2023-12-20T07:48:13;0.87;;;0.87;;
4011;SDS011;2020;48.682;9.024;2023-12-20T07:50:38;1.10;;;1.10;;
4011;SDS011;2020;48.682;9.024;2023-12-20T07:53:04;0.80;;;0.80;;
4011;SDS011;2020;48.682;9.024;2023-12-20T07:55:29;1.00;;;1.00;;
4011;SDS011;2020;48.682;9.024;2023-12-20T07:57:56;3.87;;;1.60;;
4011;SDS011;2020;48.682;9.024;2023-12-20T08:00:21;1.00;;;1.00;;
4011;SDS011;2020;48.682;9.024;2023-12-20T08:02:46;1.00;;;1.00;;
4011;SDS011;2020;48.682;9.024;2023-12-20T08:05:11;1.47;;;1.47;;
4011;SDS011;2020;48.682;9.024;2023-12-20T08:07:38;1.37;;;1.27;;
4011;SDS011;2020;48.682;9.024;2023-12-20T08:10:03;1.63;;;1.53;;
4011;SDS011;2020;48.682;9.024;2023-12-20T08:12:29;1.67;;;1.57;;
4011;SDS011;2020;48.682;9.024;2023-12-20T08:14:54;1.10;;;1.10;;
4011;SDS011;2020;48.682;9.024;2023-12-20T08:17:20;1.33;;;1.33;;
4011;SDS011;2020;48.682;9.024;2023-12-20T08:19:45;8.53;;;1.60;;
4011;SDS011;2020;48.682;9.024;2023-12-20T08:22:10;2.67;;;2.47;;
4011;SDS011;2020;48.682;9.024;2023-12-20T08:24:36;1.80;;;1.80;;
4011;SDS011;2020;48.682;9.024;2023-12-20T08:27:01;1.20;;;1.20;;
4011;SDS011;2020;48.682;9.024;2023-12-20T08:29:27;2.03;;;1.67;;
4011;SDS011;2020;48.682;9.024;2023-12-20T08:31:52;1.93;;;1.83;;
4011;SDS011;2020;48.682;9.024;2023-12-20T08:34:21;1.43;;;1.43;;
4011;SDS011;2020;48.682;9.024;2023-12-20T08:36:47;1.63;;;1.03;;
4011;SDS011;2020;48.682;9.024;2023-12-20T08:39:12;1.20;;;1.20;;
4011;SDS011;2020;48.682;9.024;2023-12-20T08:41:37;2.20;;;1.23;;
4011;SDS011;2020;48.682;9.024;2023-12-20T08:44:03;1.73;;;1.63;;
4011;SDS011;2020;48.682;9.024;2023-12-20T08:46:28;7.23;;;1.53;;
4011;SDS011;2020;48.682;9.024;2023-12-20T08:48:53;1.13;;;1.13;;
4011;SDS011;2020;48.682;9.024;2023-12-20T08:51:19;1.40;;;1.30;;
4011;SDS011;2020;48.682;9.024;2023-12-20T08:53:44;1.60;;;1.60;;
4011;SDS011;2020;48.682;9.024;2023-12-20T08:56:10;1.50;;;1.40;;
4011;SDS011;2020;48.682;9.024;2023-12-20T08:58:35;3.13;;;1.10;;
4011;SDS011;2020;48.682;9.024;2023-12-20T09:01:01;0.87;;;0.87;;
4011;SDS011;2020;48.682;9.024;2023-12-20T09:03:26;1.00;;;1.00;;
4011;SDS011;2020;48.682;9.024;2023-12-20T09:05:51;1.13;;;1.10;;
4011;SDS011;2020;48.682;9.024;2023-12-20T09:08:17;0.90;;;0.90;;
4011;SDS011;2020;48.682;9.024;2023-12-20T09:10:42;2.73;;;1.10;;
4011;SDS011;2020;48.682;9.024;2023-12-20T09:13:07;1.47;;;1.37;;
4011;SDS011;2020;48.682;9.024;2023-12-20T09:15:33;1.10;;;1.00;;
4011;SDS011;2020;48.682;9.024;2023-12-20T09:17:59;1.43;;;0.87;;
4011;SDS011;2020;48.682;9.024;2023-12-20T09:20:24;1.00;;;1.00;;
4011;SDS011;2020;48.682;9.024;2023-12-20T09:22:49;0.90;;;0.90;;
4011;SDS011;2020;48.682;9.024;2023-12-20T09:25:15;1.90;;;0.90;;
4011;SDS011;2020;48.682;9.024;2023-12-20T09:27:42;0.67;;;0.67;;
4011;SDS011;2020;48.682;9.024;2023-12-20T09:30:07;2.10;;;1.53;;
4011;SDS011;2020;48.682;9.024;2023-12-20T09:32:33;1.37;;;1.37;;
4011;SDS011;2020;48.682;9.024;2023-12-20T09:34:58;0.83;;;0.83;;
4011;SDS011;2020;48.682;9.024;2023-12-20T09:37:27;11.47;;;1.20;;
4011;SDS011;2020;48.682;9.024;2023-12-20T09:39:53;1.00;;;1.00;;
4011;SDS011;2020;48.682;9.024;2023-12-20T09:42:21;1.73;;;0.80;;
4011;SDS011;2020;48.682;9.024;2023-12-20T09:44:54;0.70;;;0.70;;
4011;SDS011;2020;48.682;9.024;2023-12-20T09:47:20;2.40;;;0.70;;
4011;SDS011;2020;48.682;9.024;2023-12-20T09:49:49;1.33;;;1.20;;
4011;SDS011;2020;48.682;9.024;2023-12-20T09:52:15;0.83;;;0.83;;
4011;SDS011;2020;48.682;9.024;2023-12-20T09:54:43;0.90;;;0.90;;
4011;SDS011;2020;48.682;9.024;2023-12-20T09:57:09;3.33;;;1.13;;
4011;SDS011;2020;48.682;9.024;2023-12-20T09:59:35;1.17;;;1.17;;
4011;SDS011;2020;48.682;9.024;2023-12-20T10:02:00;1.27;;;0.90;;
4011;SDS011;2020;48.682;9.024;2023-12-20T10:04:28;4.00;;;1.10;;
4011;SDS011;2020;48.682;9.024;2023-12-20T10:06:56;1.20;;;1.10;;
4011;SDS011;2020;48.682;9.024;2023-12-20T10:09:22;1.20;;;1.10;;
4011;SDS011;2020;48.682;9.024;2023-12-20T10:11:47;0.93;;;0.93;;
4011;SDS011;2020;48.682;9.024;2023-12-20T10:14:12;1.20;;;0.90;;
4011;SDS011;2020;48.682;9.024;2023-12-20T10:16:39;3.37;;;1.67;;
4011;SDS011;2020;48.682;9.024;2023-12-20T10:19:05;3.70;;;1.00;;
4011;SDS011;2020;48.682;9.024;2023-12-20T10:21:31;5.83;;;0.90;;
4011;SDS011;2020;48.682;9.024;2023-12-20T10:23:58;0.73;;;0.73;;
4011;SDS011;2020;48.682;9.024;2023-12-20T10:26:24;0.87;;;0.80;;
4011;SDS011;2020;48.682;9.024;2023-12-20T10:28:54;1.70;;;1.30;;
4011;SDS011;2020;48.682;9.024;2023-12-20T10:31:27;1.23;;;1.00;;
4011;SDS011;2020;48.682;9.024;2023-12-20T10:33:59;0.90;;;0.90;;
4011;SDS011;2020;48.682;9.024;2023-12-20T10:36:26;1.37;;;1.20;;
4011;SDS011;2020;48.682;9.024;2023-12-20T10:38:53;0.57;;;0.57;;
4011;SDS011;2020;48.682;9.024;2023-12-20T10:41:21;1.60;;;1.13;;
4011;SDS011;2020;48.682;9.024;2023-12-20T10:43:51;2.60;;;1.23;;
4011;SDS011;2020;48.682;9.024;2023-12-20T10:46:17;2.03;;;1.00;;
4011;SDS011;2020;48.682;9.024;2023-12-20T10:48:44;0.80;;;0.80;;
4011;SDS011;2020;48.682;9.024;2023-12-20T10:51:11;0.70;;;0.70;;
4011;SDS011;2020;48.682;9.024;2023-12-20T10:53:42;0.70;;;0.70;;
4011;SDS011;2020;48.682;9.024;2023-12-20T10:56:08;1.23;;;0.70;;
4011;SDS011;2020;48.682;9.024;2023-12-20T10:58:38;2.63;;;1.23;;
4011;SDS011;2020;48.682;9.024;2023-12-20T11:01:05;1.07;;;1.07;;
4011;SDS011;2020;48.682;9.024;2023-12-20T11:03:32;0.77;;;0.77;;
4011;SDS011;2020;48.682;9.024;2023-12-20T11:11:31;1.70;;;1.30;;
4011;SDS011;2020;48.682;9.024;2023-12-20T11:14:18;2.00;;;0.80;;
4011;SDS011;2020;48.682;9.024;2023-12-20T11:16:48;0.83;;;0.77;;
4011;SDS011;2020;48.682;9.024;2023-12-20T11:19:13;0.83;;;0.80;;
4011;SDS011;2020;48.682;9.024;2023-12-20T11:21:39;7.50;;;1.20;;
4011;SDS011;2020;48.682;9.024;2023-12-20T11:24:05;1.00;;;0.83;;
4011;SDS011;2020;48.682;9.024;2023-12-20T11:26:30;6.10;;;1.00;;
4011;SDS011;2020;48.682;9.024;2023-12-20T11:29:57;0.83;;;0.83;;
4011;SDS011;2020;48.682;9.024;2023-12-20T11:31:59;1.43;;;1.30;;
4011;SDS011;2020;48.682;9.024;2023-12-20T11:34:31;3.43;;;1.03;;
4011;SDS011;2020;48.682;9.024;2023-12-20T11:36:58;1.73;;;0.97;;
4011;SDS011;2020;48.682;9.024;2023-12-20T11:39:25;2.20;;;0.83;;
4011;SDS011;2020;48.682;9.024;2023-12-20T11:41:53;1.73;;;1.00;;
4011;SDS011;2020;48.682;9.024;2023-12-20T11:44:19;0.93;;;0.93;;
4011;SDS011;2020;48.682;9.024;2023-12-20T11:46:45;1.90;;;1.37;;
4011;SDS011;2020;48.682;9.024;2023-12-20T11:49:11;3.60;;;1.20;;
4011;SDS011;2020;48.682;9.024;2023-12-20T11:51:40;1.50;;;0.80;;
4011;SDS011;2020;48.682;9.024;2023-12-20T11:54:05;2.73;;;0.90;;
4011;SDS011;2020;48.682;9.024;2023-12-20T11:56:31;2.10;;;1.07;;
4011;SDS011;2020;48.682;9.024;2023-12-20T11:58:57;0.80;;;0.80;;
4011;SDS011;2020;48.682;9.024;2023-12-20T12:01:22;0.73;;;0.73;;
4011;SDS011;2020;48.682;9.024;2023-12-20T12:03:47;1.10;;;1.00;;
4011;SDS011;2020;48.682;9.024;2023-12-20T12:06:12;1.63;;;1.00;;
4011;SDS011;2020;48.682;9.024;2023-12-20T12:08:38;3.70;;;0.80;;
4011;SDS011;2020;48.682;9.024;2023-12-20T12:11:04;0.60;;;0.60;;
4011;SDS011;2020;48.682;9.024;2023-12-20T12:13:29;2.20;;;1.00;;
4011;SDS011;2020;48.682;9.024;2023-12-20T12:15:54;1.40;;;1.30;;
4011;SDS011;2020;48.682;9.024;2023-12-20T12:18:20;5.03;;;1.10;;
4011;SDS011;2020;48.682;9.024;2023-12-20T12:20:45;2.77;;;1.17;;
4011;SDS011;2020;48.682;9.024;2023-12-20T12:23:10;3.93;;;1.00;;
4011;SDS011;2020;48.682;9.024;2023-12-20T12:25:36;4.43;;;1.30;;
4011;SDS011;2020;48.682;9.024;2023-12-20T12:28:04;1.40;;;1.03;;
4011;SDS011;2020;48.682;9.024;2023-12-20T12:30:30;0.90;;;0.90;;
4011;SDS011;2020;48.682;9.024;2023-12-20T12:32:55;0.80;;;0.80;;
4011;SDS011;2020;48.682;9.024;2023-12-20T12:35:21;1.37;;;1.27;;
4011;SDS011;2020;48.682;9.024;2023-12-20T12:37:47;3.90;;;1.40;;
4011;SDS011;2020;48.682;9.024;2023-12-20T12:40:13;2.13;;;0.87;;
4011;SDS011;2020;48.682;9.024;2023-12-20T12:42:39;0.77;;;0.77;;
4011;SDS011;2020;48.682;9.024;2023-12-20T12:45:06;4.33;;;1.00;;
4011;SDS011;2020;48.682;9.024;2023-12-20T12:47:31;0.60;;;0.60;;
4011;SDS011;2020;48.682;9.024;2023-12-20T12:49:57;3.20;;;0.80;;
4011;SDS011;2020;48.682;9.024;2023-12-20T12:52:22;0.83;;;0.80;;
4011;SDS011;2020;48.682;9.024;2023-12-20T12:54:48;2.53;;;2.30;;
4011;SDS011;2020;48.682;9.024;2023-12-20T12:57:14;4.70;;;3.57;;
4011;SDS011;2020;48.682;9.024;2023-12-20T12:59:40;2.93;;;1.00;;
4011;SDS011;2020;48.682;9.024;2023-12-20T13:02:06;7.23;;;1.63;;
4011;SDS011;2020;48.682;9.024;2023-12-20T13:04:32;2.20;;;1.00;;
4011;SDS011;2020;48.682;9.024;2023-12-20T13:06:57;3.73;;;1.43;;
4011;SDS011;2020;48.682;9.024;2023-12-20T13:09:22;1.47;;;1.03;;
4011;SDS011;2020;48.682;9.024;2023-12-20T13:11:48;0.70;;;0.70;;
4011;SDS011;2020;48.682;9.024;2023-12-20T13:14:13;3.53;;;0.83;;
4011;SDS011;2020;48.682;9.024;2023-12-20T13:16:40;8.67;;;1.13;;
4011;SDS011;2020;48.682;9.024;2023-12-20T13:19:06;2.67;;;0.83;;
4011;SDS011;2020;48.682;9.024;2023-12-20T13:21:31;0.70;;;0.70;;
4011;SDS011;2020;48.682;9.024;2023-12-20T13:23:57;1.47;;;0.60;;
4011;SDS011;2020;48.682;9.024;2023-12-20T13:26:22;0.70;;;0.70;;
4011;SDS011;2020;48.682;9.024;2023-12-20T13:28:47;1.53;;;0.90;;
4011;SDS011;2020;48.682;9.024;2023-12-20T13:31:12;2.60;;;1.07;;
4011;SDS011;2020;48.682;9.024;2023-12-20T13:33:38;0.83;;;0.83;;
4011;SDS011;2020;48.682;9.024;2023-12-20T13:36:04;2.10;;;0.93;;
4011;SDS011;2020;48.682;9.024;2023-12-20T13:38:29;0.80;;;0.70;;
4011;SDS011;2020;48.682;9.024;2023-12-20T13:40:55;0.93;;;0.83;;
4011;SDS011;2020;48.682;9.024;2023-12-20T13:43:20;1.33;;;0.80;;
4011;SDS011;2020;48.682;9.024;2023-12-20T13:45:47;1.90;;;0.60;;
4011;SDS011;2020;48.682;9.024;2023-12-20T13:48:13;1.10;;;0.77;;
4011;SDS011;2020;48.682;9.024;2023-12-20T13:50:38;2.80;;;0.70;;
4011;SDS011;2020;48.682;9.024;2023-12-20T13:53:04;3.97;;;0.87;;
4011;SDS011;2020;48.682;9.024;2023-12-20T13:55:29;1.63;;;0.90;;
4011;SDS011;2020;48.682;9.024;2023-12-20T13:57:55;9.17;;;1.10;;
4011;SDS011;2020;48.682;9.024;2023-12-20T14:00:21;1.53;;;0.70;;
4011;SDS011;2020;48.682;9.024;2023-12-20T14:02:47;0.63;;;0.63;;
4011;SDS011;2020;48.682;9.024;2023-12-20T14:05:12;1.47;;;0.70;;
4011;SDS011;2020;48.682;9.024;2023-12-20T14:07:39;0.77;;;0.77;;
4011;SDS011;2020;48.682;9.024;2023-12-20T14:10:05;2.70;;;1.20;;
4011;SDS011;2020;48.682;9.024;2023-12-20T14:12:31;1.03;;;0.93;;
4011;SDS011;2020;48.682;9.024;2023-12-20T14:15:00;3.40;;;1.53;;
4011;SDS011;2020;48.682;9.024;2023-12-20T14:17:26;1.87;;;0.70;;
4011;SDS011;2020;48.682;9.024;2023-12-20T14:19:51;2.10;;;0.70;;
4011;SDS011;2020;48.682;9.024;2023-12-20T14:22:16;1.13;;;0.90;;
4011;SDS011;2020;48.682;9.024;2023-12-20T14:24:42;0.83;;;0.70;;
4011;SDS011;2020;48.682;9.024;2023-12-20T14:27:07;1.53;;;1.20;;
4011;SDS011;2020;48.682;9.024;2023-12-20T14:29:34;2.40;;;0.70;;
4011;SDS011;2020;48.682;9.024;2023-12-20T14:31:59;1.80;;;1.07;;
4011;SDS011;2020;48.682;9.024;2023-12-20T14:34:27;0.70;;;0.70;;
4011;SDS011;2020;48.682;9.024;2023-12-20T14:36:53;1.67;;;0.97;;
4011;SDS011;2020;48.682;9.024;2023-12-20T14:39:18;0.80;;;0.80;;
4011;SDS011;2020;48.682;9.024;2023-12-20T14:41:43;4.10;;;1.00;;
4011;SDS011;2020;48.682;9.024;2023-12-20T14:44:09;2.37;;;0.77;;
4011;SDS011;2020;48.682;9.024;2023-12-20T14:46:35;1.13;;;1.03;;
4011;SDS011;2020;48.682;9.024;2023-12-20T14:49:00;2.97;;;1.00;;
4011;SDS011;2020;48.682;9.024;2023-12-20T14:51:27;1.77;;;0.80;;
4011;SDS011;2020;48.682;9.024;2023-12-20T14:53:52;1.20;;;1.17;;
4011;SDS011;2020;48.682;9.024;2023-12-20T14:56:18;2.50;;;1.10;;
4011;SDS011;2020;48.682;9.024;2023-12-20T14:58:43;2.20;;;0.90;;
4011;SDS011;2020;48.682;9.024;2023-12-20T15:01:08;1.20;;;1.20;;
4011;SDS011;2020;48.682;9.024;2023-12-20T15:03:34;3.00;;;1.27;;
4011;SDS011;2020;48.682;9.024;2023-12-20T15:05:59;1.20;;;1.20;;
4011;SDS011;2020;48.682;9.024;2023-12-20T15:08:25;1.17;;;1.07;;
4011;SDS011;2020;48.682;9.024;2023-12-20T15:10:51;4.70;;;1.53;;
4011;SDS011;2020;48.682;9.024;2023-12-20T15:13:16;2.13;;;1.10;;